createdAt,value
2019-05-15T00:01:03.447Z,10.40
2019-05-15T00:03:39.354Z,10.30
2019-05-15T00:06:50.289Z,10.30
2019-05-15T00:09:32.154Z,10.30
2019-05-15T00:12:11.273Z,10.20
2019-05-15T00:14:51.433Z,10.20
2019-05-15T00:17:34.053Z,10.20
2019-05-15T00:20:13.042Z,10.10
2019-05-15T00:22:56.206Z,10.10
2019-05-15T00:25:41.123Z,10.10
2019-05-15T00:28:23.035Z,10.10
2019-05-15T00:30:54.546Z,10.20
2019-05-15T00:33:41.892Z,10.00
2019-05-15T00:36:33.350Z,10.10
2019-05-15T00:39:16.069Z,10.00
2019-05-15T00:42:08.218Z,10.00
2019-05-15T00:44:49.354Z,10.00
2019-05-15T00:47:34.131Z,9.90
2019-05-15T00:50:13.061Z,9.80
2019-05-15T00:52:51.834Z,9.80
2019-05-15T00:55:28.421Z,9.70
2019-05-15T00:58:09.513Z,9.70
2019-05-15T01:00:48.510Z,9.70
2019-05-15T01:03:49.170Z,9.70
2019-05-15T01:06:28.298Z,9.70
2019-05-15T01:09:02.920Z,9.70
2019-05-15T01:11:49.389Z,9.60
2019-05-15T01:14:34.283Z,9.60
2019-05-15T01:17:23.992Z,9.50
2019-05-15T01:20:08.493Z,9.50
2019-05-15T01:22:45.718Z,9.50
2019-05-15T01:25:28.063Z,9.50
2019-05-15T01:28:09.545Z,9.50
2019-05-15T01:30:49.936Z,9.50
2019-05-15T01:33:33.911Z,9.50
2019-05-15T01:36:19.323Z,9.50
2019-05-15T01:38:54.502Z,9.40
2019-05-15T01:41:41.173Z,9.30
2019-05-15T01:44:42.304Z,9.30
2019-05-15T01:47:16.022Z,9.30
2019-05-15T01:49:51.495Z,9.20
2019-05-15T01:52:33.936Z,9.10
2019-05-15T01:55:05.536Z,9.00
2019-05-15T01:57:42.869Z,9.10
2019-05-15T02:00:23.969Z,9.10
2019-05-15T02:02:58.785Z,9.10
2019-05-15T02:05:34.275Z,9.10
2019-05-15T02:08:19.045Z,9.10
2019-05-15T02:10:58.806Z,9.00
2019-05-15T02:13:28.885Z,9.00
2019-05-15T02:16:10.289Z,9.00
2019-05-15T02:18:48.915Z,8.90
2019-05-15T02:21:29.431Z,9.00
2019-05-15T02:24:09.865Z,8.90
2019-05-15T02:26:48.399Z,8.90
2019-05-15T02:29:28.717Z,8.90
2019-05-15T02:32:03.969Z,8.90
2019-05-15T02:35:13.370Z,8.90
2019-05-15T02:37:51.556Z,8.90
2019-05-15T02:40:24.798Z,8.80
2019-05-15T02:42:59.168Z,8.70
2019-05-15T02:45:42.825Z,8.70
2019-05-15T02:48:19.723Z,8.70
2019-05-15T02:51:09.984Z,8.60
2019-05-15T02:53:45.691Z,8.60
2019-05-15T02:56:22.068Z,8.60
2019-05-15T02:59:08.966Z,8.60
2019-05-15T03:01:59.713Z,8.50
2019-05-15T03:04:39.772Z,8.50
2019-05-15T03:07:13.523Z,8.50
2019-05-15T03:09:51.664Z,8.50
2019-05-15T03:12:29.027Z,8.40
2019-05-15T03:15:09.168Z,8.40
2019-05-15T03:18:00.364Z,8.40
2019-05-15T03:20:41.836Z,8.40
2019-05-15T03:26:19.724Z,8.30
2019-05-15T03:28:52.505Z,8.30
2019-05-15T03:31:43.514Z,8.30
2019-05-15T03:34:28.364Z,8.20
2019-05-15T03:40:10.377Z,8.20
2019-05-15T03:42:45.800Z,8.20
2019-05-15T03:45:34.349Z,8.20
2019-05-15T03:48:09.376Z,8.20
2019-05-15T03:50:42.135Z,8.20
2019-05-15T03:56:22.883Z,8.10
2019-05-15T03:59:09.376Z,8.20
2019-05-15T04:01:44.189Z,8.10
2019-05-15T04:04:33.773Z,8.10
2019-05-15T04:07:11.962Z,8.10
2019-05-15T04:09:44.575Z,8.10
2019-05-15T04:12:29.042Z,8.20
2019-05-15T04:15:14.548Z,8.20
2019-05-15T04:18:24.274Z,8.20
2019-05-15T04:20:59.856Z,8.20
2019-05-15T04:23:39.218Z,8.20
2019-05-15T04:26:20.519Z,8.30
2019-05-15T04:29:00.716Z,8.30
2019-05-15T04:31:51.956Z,8.70
2019-05-15T04:34:24.454Z,9.90
2019-05-15T04:37:11.004Z,11.20
2019-05-15T04:39:50.745Z,12.50
2019-05-15T04:42:29.915Z,13.50
2019-05-15T04:45:19.134Z,14.20
2019-05-15T04:48:13.368Z,14.50
2019-05-15T04:51:19.045Z,15.10
2019-05-15T04:53:53.602Z,15.80
2019-05-15T04:57:00.326Z,15.80
2019-05-15T04:59:29.812Z,15.80
2019-05-15T05:02:26.032Z,16.30
2019-05-15T05:05:00.537Z,16.60
2019-05-15T05:07:59.676Z,16.30
2019-05-15T05:10:49.747Z,15.90
2019-05-15T05:13:29.797Z,16.00
2019-05-15T05:16:21.009Z,15.90
2019-05-15T05:19:14.346Z,16.70
2019-05-15T05:22:08.090Z,17.30
2019-05-15T05:25:01.756Z,17.90
2019-05-15T05:27:48.718Z,18.50
2019-05-15T05:30:32.032Z,18.10
2019-05-15T05:33:38.330Z,18.40
2019-05-15T05:36:27.946Z,18.50
2019-05-15T05:39:09.578Z,19.30
2019-05-15T05:41:56.098Z,19.90
2019-05-15T05:44:49.242Z,20.30
2019-05-15T05:47:58.071Z,19.90
2019-05-15T05:51:04.849Z,19.80
2019-05-15T05:54:05.539Z,20.70
2019-05-15T05:56:59.918Z,20.90
2019-05-15T05:59:58.252Z,20.90
2019-05-15T06:02:59.003Z,20.00
2019-05-15T06:05:52.425Z,20.00
2019-05-15T06:08:49.772Z,19.40
2019-05-15T06:11:41.399Z,18.90
2019-05-15T06:14:29.749Z,20.20
2019-05-15T06:17:19.098Z,20.10
2019-05-15T06:20:30.268Z,20.60
2019-05-15T06:23:25.389Z,21.00
2019-05-15T06:26:09.083Z,21.90
2019-05-15T06:29:19.702Z,22.00
2019-05-15T06:32:08.312Z,22.10
2019-05-15T06:35:31.276Z,21.30
2019-05-15T06:38:30.609Z,21.60
2019-05-15T06:41:18.731Z,20.60
2019-05-15T06:44:10.199Z,21.60
2019-05-15T06:47:29.428Z,22.90
2019-05-15T06:50:25.719Z,23.30
2019-05-15T06:53:25.002Z,23.10
2019-05-15T06:56:29.989Z,22.90
2019-05-15T07:02:53.941Z,21.20
2019-05-15T07:05:51.095Z,20.90
2019-05-15T07:09:12.767Z,21.60
2019-05-15T07:12:03.433Z,21.70
2019-05-15T07:15:14.437Z,21.70
2019-05-15T07:18:19.693Z,22.60
2019-05-15T07:21:42.588Z,22.30
2019-05-15T07:24:25.611Z,21.60
2019-05-15T07:27:22.224Z,20.70
2019-05-15T07:30:19.760Z,20.20
2019-05-15T07:33:35.731Z,20.30
2019-05-15T07:35:59.146Z,21.50
2019-05-15T07:45:19.714Z,22.30
2019-05-15T07:48:18.477Z,21.10
2019-05-15T07:51:28.473Z,21.50
2019-05-15T07:54:24.971Z,21.50
2019-05-15T07:57:29.888Z,21.50
2019-05-15T08:00:49.579Z,22.30
2019-05-15T08:04:21.793Z,22.80
2019-05-15T08:10:24.597Z,21.90
2019-05-15T08:13:29.577Z,21.70
2019-05-15T08:16:52.100Z,21.70
2019-05-15T08:19:39.125Z,21.10
2019-05-15T08:22:41.088Z,22.30
2019-05-15T08:25:34.686Z,21.20
2019-05-15T08:28:20.099Z,20.70
2019-05-15T08:31:53.518Z,21.20
2019-05-15T08:35:19.422Z,22.20
2019-05-15T08:38:25.463Z,21.80
2019-05-15T08:41:32.303Z,20.70
2019-05-15T08:44:44.936Z,19.80
2019-05-15T08:47:34.614Z,21.10
2019-05-15T08:50:35.224Z,22.10
2019-05-15T08:53:48.808Z,22.30
2019-05-15T08:56:59.403Z,22.10
2019-05-15T08:59:49.214Z,22.90
2019-05-15T09:02:52.916Z,22.70
2019-05-15T09:05:49.942Z,22.30
2019-05-15T09:08:38.763Z,22.70
2019-05-15T09:11:48.137Z,22.50
2019-05-15T09:14:54.088Z,23.30
2019-05-15T09:18:20.873Z,22.30
2019-05-15T09:21:49.581Z,21.60
2019-05-15T09:25:19.289Z,21.80
2019-05-15T09:28:45.513Z,23.00
2019-05-15T09:31:54.948Z,22.50
2019-05-15T09:35:28.015Z,22.50
2019-05-15T09:39:08.723Z,22.00
2019-05-15T09:42:13.208Z,21.70
2019-05-15T09:45:14.898Z,22.50
2019-05-15T09:48:14.806Z,22.20
2019-05-15T09:51:25.248Z,22.20
2019-05-15T09:54:25.633Z,21.30
2019-05-15T09:57:13.282Z,21.30
2019-05-15T10:00:18.986Z,21.30
2019-05-15T10:03:02.587Z,21.20
2019-05-15T10:06:10.309Z,20.10
2019-05-15T10:09:28.400Z,20.70
2019-05-15T10:12:50.831Z,20.10
2019-05-15T10:15:32.980Z,20.00
2019-05-15T10:18:45.078Z,19.10
2019-05-15T10:21:52.776Z,18.40
2019-05-15T10:24:43.554Z,17.90
2019-05-15T10:28:04.688Z,17.80
2019-05-15T10:31:21.447Z,18.30
2019-05-15T10:34:39.819Z,18.50
2019-05-15T10:37:30.026Z,18.50
2019-05-15T10:40:58.575Z,18.70
2019-05-15T10:43:46.083Z,18.10
2019-05-15T10:47:00.662Z,17.80
2019-05-15T10:50:07.860Z,18.10
2019-05-15T10:52:59.192Z,17.40
2019-05-15T10:56:04.610Z,17.70
2019-05-15T10:58:58.977Z,18.20
2019-05-15T11:02:25.579Z,17.90
2019-05-15T11:05:14.733Z,17.00
2019-05-15T11:07:53.257Z,16.60
2019-05-15T11:11:12.364Z,17.30
2019-05-15T11:14:05.678Z,17.30
2019-05-15T11:16:45.254Z,17.70
2019-05-15T11:22:53.748Z,17.60
2019-05-15T11:26:08.823Z,17.50
2019-05-15T11:28:58.782Z,17.70
2019-05-15T11:32:00.359Z,17.40
2019-05-15T11:35:04.469Z,18.00
2019-05-15T11:38:09.541Z,18.30
2019-05-15T11:48:30.551Z,18.10
2019-05-15T11:55:19.469Z,17.10
2019-05-15T11:58:22.006Z,16.90
2019-05-15T12:01:52.658Z,17.90
2019-05-15T12:04:58.410Z,17.30
2019-05-15T12:08:14.061Z,17.70
2019-05-15T12:11:41.378Z,17.50
2019-05-15T12:14:54.102Z,17.50
2019-05-15T12:17:49.970Z,18.20
2019-05-15T12:20:28.733Z,18.10
2019-05-15T12:23:28.897Z,16.80
2019-05-15T12:26:20.338Z,17.30
2019-05-15T12:29:12.895Z,17.80
2019-05-15T12:35:56.562Z,18.10
2019-05-15T12:39:09.010Z,18.60
2019-05-15T13:01:40.727Z,17.40
2019-05-15T13:09:10.926Z,17.80
2019-05-15T13:12:40.021Z,17.70
2019-05-15T13:15:48.375Z,17.30
2019-05-15T13:18:58.759Z,17.40
2019-05-15T13:25:02.735Z,17.70
2019-05-15T13:28:10.804Z,17.80
2019-05-15T13:31:28.445Z,17.20
2019-05-15T13:35:05.537Z,17.20
2019-05-15T13:41:09.423Z,17.30
2019-05-15T13:48:24.414Z,16.80
2019-05-15T13:51:23.863Z,17.20
2019-05-15T13:51:42.635Z,17.30
2019-05-15T13:54:37.819Z,17.50
2019-05-15T13:58:04.233Z,17.50
2019-05-15T14:01:09.390Z,17.30
2019-05-15T14:04:29.693Z,17.10
2019-05-15T14:11:31.091Z,17.00
2019-05-15T14:22:38.655Z,16.60
2019-05-15T14:25:58.682Z,16.70
2019-05-15T14:29:29.001Z,16.60
2019-05-15T14:32:48.364Z,16.80
2019-05-15T14:35:48.266Z,16.90
2019-05-15T14:39:20.756Z,17.00
2019-05-15T14:42:08.819Z,16.90
2019-05-15T14:49:09.166Z,17.20
2019-05-15T14:56:00.527Z,17.20
2019-05-15T15:02:52.057Z,17.40
2019-05-15T15:05:59.151Z,17.40
2019-05-15T15:12:23.941Z,17.70
2019-05-15T15:15:14.889Z,18.10
2019-05-15T15:21:54.317Z,17.70
2019-05-15T15:28:18.897Z,17.60
2019-05-15T15:31:20.003Z,17.30
2019-05-15T15:34:32.344Z,17.30
2019-05-15T15:37:19.824Z,17.20
2019-05-15T15:40:12.180Z,17.10
2019-05-15T15:43:08.805Z,17.40
2019-05-15T15:46:28.762Z,17.00
2019-05-15T15:49:32.526Z,17.20
2019-05-15T15:52:21.930Z,17.20
2019-05-15T15:55:11.684Z,17.30
2019-05-15T15:58:09.888Z,17.40
2019-05-15T16:01:09.178Z,17.60
2019-05-15T16:03:56.932Z,17.40
2019-05-15T16:06:58.740Z,17.40
2019-05-15T16:10:02.482Z,17.10
2019-05-15T16:12:58.203Z,17.10
2019-05-15T16:16:08.728Z,17.20
2019-05-15T16:19:20.685Z,17.50
2019-05-15T16:22:31.982Z,17.60
2019-05-15T16:25:28.779Z,17.50
2019-05-15T16:32:03.681Z,17.40
2019-05-15T16:35:03.454Z,16.80
2019-05-15T16:38:19.036Z,16.70
2019-05-15T16:40:48.928Z,16.60
2019-05-15T16:44:00.452Z,16.80
2019-05-15T16:47:18.636Z,16.80
2019-05-15T16:50:52.346Z,16.80
2019-05-15T16:53:46.137Z,16.60
2019-05-15T16:56:54.727Z,16.60
2019-05-15T17:00:12.085Z,16.50
2019-05-15T17:03:31.385Z,16.60
2019-05-15T17:06:20.737Z,16.40
2019-05-15T17:13:19.695Z,16.30
2019-05-15T17:16:30.589Z,16.20
2019-05-15T17:19:40.307Z,16.40
2019-05-15T17:23:00.017Z,16.40
2019-05-15T17:25:58.264Z,16.40
2019-05-15T17:28:58.292Z,16.40
2019-05-15T17:31:49.074Z,16.40
2019-05-15T17:34:53.062Z,16.80
2019-05-15T17:38:06.560Z,17.10
2019-05-15T17:41:13.808Z,17.50
2019-05-15T17:44:22.719Z,18.00
2019-05-15T17:47:12.342Z,18.10
2019-05-15T17:50:08.445Z,17.80
2019-05-15T17:53:05.525Z,17.50
2019-05-15T17:56:11.550Z,17.20
2019-05-15T18:02:33.269Z,17.30
2019-05-15T18:05:21.269Z,17.10
2019-05-15T18:08:22.623Z,17.10
2019-05-15T18:11:40.064Z,16.90
2019-05-15T18:14:30.237Z,16.60
2019-05-15T18:17:18.543Z,16.70
2019-05-15T18:20:18.455Z,16.80
2019-05-15T18:23:13.358Z,16.80
2019-05-15T18:26:38.772Z,16.70
2019-05-15T18:33:10.450Z,16.30
2019-05-15T18:36:01.388Z,16.10
2019-05-15T18:39:17.738Z,16.10
2019-05-15T18:42:22.367Z,16.00
2019-05-15T18:45:43.538Z,16.00
2019-05-15T18:48:40.576Z,16.00
2019-05-15T18:52:05.038Z,16.00
2019-05-15T18:55:09.225Z,15.90
2019-05-15T18:58:18.940Z,16.30
2019-05-15T19:01:09.469Z,16.00
2019-05-15T19:04:08.737Z,15.90
2019-05-15T19:07:08.849Z,15.90
2019-05-15T19:10:27.980Z,15.70
2019-05-15T19:13:34.584Z,15.70
2019-05-15T19:16:38.778Z,15.70
2019-05-15T19:19:24.749Z,15.80
2019-05-15T19:22:25.217Z,15.70
2019-05-15T19:25:22.566Z,15.50
2019-05-15T19:28:28.474Z,15.40
2019-05-15T19:31:26.680Z,15.50
2019-05-15T19:34:13.897Z,15.60
2019-05-15T19:37:24.661Z,15.60
2019-05-15T19:40:48.289Z,15.70
2019-05-15T19:43:41.147Z,15.70
2019-05-15T19:46:38.495Z,15.70
2019-05-15T19:49:51.133Z,15.60
2019-05-15T19:52:59.334Z,15.70
2019-05-15T19:56:01.752Z,15.50
2019-05-15T19:59:03.557Z,15.60
2019-05-15T20:02:11.502Z,15.60
2019-05-15T20:05:18.272Z,15.50
2019-05-15T20:08:09.516Z,15.10
2019-05-15T20:11:18.041Z,14.80
2019-05-15T20:14:29.505Z,14.50
2019-05-15T20:17:18.870Z,14.40
2019-05-15T20:20:08.623Z,14.20
2019-05-15T20:22:55.130Z,14.00
2019-05-15T20:25:44.391Z,13.90
2019-05-15T20:28:32.999Z,13.80
2019-05-15T20:31:35.226Z,13.70
2019-05-15T20:34:25.425Z,13.60
2019-05-15T20:37:18.282Z,13.60
2019-05-15T20:40:31.406Z,13.40
2019-05-15T20:43:11.711Z,13.30
2019-05-15T20:45:52.527Z,13.30
2019-05-15T20:48:28.904Z,13.20
2019-05-15T20:51:18.369Z,13.20
2019-05-15T20:54:17.198Z,13.40
2019-05-15T20:56:58.350Z,13.10
2019-05-15T20:59:54.460Z,13.00
2019-05-15T21:03:08.421Z,13.00
2019-05-15T21:05:49.696Z,12.90
2019-05-15T21:08:38.559Z,12.80
2019-05-15T21:11:43.575Z,12.80
2019-05-15T21:15:04.042Z,12.70
2019-05-15T21:17:45.966Z,12.70
2019-05-15T21:21:03.342Z,12.60
2019-05-15T21:24:40.313Z,12.50
2019-05-15T21:27:43.722Z,12.50
2019-05-15T21:30:49.678Z,12.50
2019-05-15T21:33:54.309Z,12.50
2019-05-15T21:37:14.523Z,12.50
2019-05-15T21:40:08.003Z,12.40
2019-05-15T21:43:08.912Z,12.30
2019-05-15T21:46:09.608Z,12.30
2019-05-15T21:48:52.817Z,12.20
2019-05-15T21:51:32.422Z,12.20
2019-05-15T21:54:10.094Z,12.20
2019-05-15T21:57:28.794Z,12.10
2019-05-15T21:59:54.729Z,12.20
2019-05-15T22:02:49.358Z,12.10
2019-05-15T22:05:49.294Z,12.10
2019-05-15T22:09:23.478Z,12.00
2019-05-15T22:12:01.172Z,12.00
2019-05-15T22:14:42.493Z,11.90
2019-05-15T22:17:54.384Z,11.90
2019-05-15T22:20:44.225Z,11.90
2019-05-15T22:23:24.414Z,11.90
2019-05-15T22:26:29.072Z,11.90
2019-05-15T22:29:29.169Z,11.80
2019-05-15T22:32:12.416Z,11.80
2019-05-15T22:35:12.419Z,11.80
2019-05-15T22:38:01.041Z,11.80
2019-05-15T22:40:42.443Z,11.80
2019-05-15T22:43:20.658Z,11.70
2019-05-15T22:46:03.661Z,11.60
2019-05-15T22:48:48.405Z,11.60
2019-05-15T22:51:20.646Z,11.60
2019-05-15T22:54:09.712Z,11.60
2019-05-15T22:56:51.555Z,11.60
2019-05-15T23:00:36.019Z,11.50
2019-05-15T23:02:32.581Z,11.50
2019-05-15T23:05:33.172Z,11.50
2019-05-15T23:08:34.219Z,11.40
2019-05-15T23:11:39.371Z,11.40
2019-05-15T23:14:23.008Z,11.40
2019-05-15T23:21:18.165Z,11.40
2019-05-15T23:24:18.841Z,11.30
2019-05-15T23:27:20.450Z,11.30
2019-05-15T23:30:18.445Z,11.20
2019-05-15T23:33:48.112Z,11.20
2019-05-15T23:37:08.246Z,11.10
2019-05-15T23:40:43.510Z,11.10
2019-05-15T23:43:42.559Z,11.00
2019-05-15T23:46:26.155Z,11.00
2019-05-15T23:49:51.342Z,10.90
2019-05-15T23:53:25.359Z,10.90
2019-05-15T23:56:19.066Z,10.90
2019-05-15T23:59:28.170Z,10.90
